Time;durP1;ratioP1;P1;durP2;ratioP2;P2;SDS_P1;SDS_P2;PMS_P1;PMS_P2;Temp;Humidity;BMP_temperature;BMP_pressure;BME280_temperature;BME280_humidity;BME280_pressure;Samples;Min_cycle;Max_cycle;Signal;HPM_P1;HPM_P2
2022/09/09 00:01:05;;;;;;;2.65;1.73;;;;;;;15.68;79.41;98251.81;5061427;28;20032;-83
2022/09/09 00:03:56;;;;;;;1.65;1.48;;;;;;;15.72;79.67;98257.44;5066574;28;20028;-83
2022/09/09 00:06:28;;;;;;;4.78;1.83;;;;;;;15.68;79.12;98251.03;5074300;28;20428;-83
2022/09/09 00:09:00;;;;;;;5.03;1.90;;;;;;;15.67;79.41;98244.88;5069151;28;20029;-82
2022/09/09 00:11:40;;;;;;;4.78;1.70;;;;;;;15.67;79.19;98252.13;5058823;28;22077;-84
2022/09/09 00:14:14;;;;;;;3.03;2.03;;;;;;;15.57;79.38;98233.47;5062551;28;20091;-83
2022/09/09 00:16:46;;;;;;;5.55;2.92;;;;;;;15.61;79.80;98240.66;5062702;28;20599;-83
2022/09/09 00:19:22;;;;;;;5.68;1.50;;;;;;;15.61;79.80;98240.66;5059785;28;20060;-82
2022/09/09 00:22:13;;;;;;;1.83;1.70;;;;;;;15.73;79.38;98243.66;5067916;28;20565;-83
2022/09/09 00:24:41;;;;;;;4.63;1.65;;;;;;;15.67;79.46;98249.44;5061112;28;20029;-83
2022/09/09 00:27:22;;;;;;;2.97;1.90;;;;;;;15.50;79.69;98227.69;5077253;28;20548;-83
2022/09/09 00:30:12;;;;;;;2.70;1.88;;;;;;;15.61;79.62;98243.38;5065503;28;20499;-84
2022/09/09 00:32:37;;;;;;;9.80;1.70;;;;;;;15.49;79.82;98220.69;5066135;28;20025;-83
2022/09/09 00:35:15;;;;;;;3.33;1.95;;;;;;;15.52;79.60;98230.88;5045864;28;20090;-83
2022/09/09 00:37:42;;;;;;;4.07;1.85;;;;;;;15.46;79.50;98232.06;5064914;28;20396;-83
2022/09/09 00:40:30;;;;;;;3.88;2.13;;;;;;;15.57;79.84;98241.56;5070324;28;20085;-83
2022/09/09 00:43:22;;;;;;;3.28;1.90;;;;;;;15.54;79.76;98239.44;5069311;28;20054;-83
2022/09/09 00:46:09;;;;;;;6.63;1.92;;;;;;;15.48;79.81;98240.63;5064956;28;20078;-83
2022/09/09 00:48:40;;;;;;;3.10;1.80;;;;;;;15.56;79.40;98245.31;5063538;28;20033;-83
2022/09/09 00:51:30;;;;;;;5.10;1.77;;;;;;;15.37;79.59;98241.84;5060732;28;20036;-83
2022/09/09 00:54:04;;;;;;;4.63;2.10;;;;;;;15.50;79.60;98239.25;5068415;28;20163;-84
2022/09/09 00:56:46;;;;;;;4.38;2.30;;;;;;;15.33;79.44;98214.72;5071478;28;20029;-83
2022/09/09 00:59:22;;;;;;;2.90;1.73;;;;;;;15.35;79.74;98227.91;5070394;28;20020;-83
2022/09/09 01:01:48;;;;;;;2.88;2.00;;;;;;;15.35;79.66;98227.91;5066296;28;20526;-83
2022/09/09 01:04:21;;;;;;;4.50;2.13;;;;;;;15.50;79.44;98241.94;5047496;28;20028;-82
2022/09/09 01:06:53;;;;;;;4.65;1.92;;;;;;;15.34;79.90;98228.97;5040573;28;20095;-83
2022/09/09 01:09:45;;;;;;;4.80;1.70;;;;;;;15.38;79.58;98249.63;5068721;28;20025;-83
2022/09/09 01:12:23;;;;;;;4.53;2.33;;;;;;;15.37;79.66;98239.16;5070848;28;20021;-83
2022/09/09 01:14:51;;;;;;;5.88;1.70;;;;;;;15.26;79.53;98218.91;5068636;28;20071;-83
2022/09/09 01:17:17;;;;;;;3.30;1.90;;;;;;;15.37;79.34;98247.22;5051969;28;20024;-83
2022/09/09 01:19:42;;;;;;;5.47;1.92;;;;;;;15.36;79.99;98254.50;5065403;28;20078;-83
2022/09/09 01:22:26;;;;;;;2.33;1.70;;;;;;;15.14;79.70;98213.19;5069459;28;20449;-83
2022/09/09 01:25:09;;;;;;;1.60;1.50;;;;;;;15.19;79.92;98232.72;5066332;28;20082;-84
2022/09/09 01:27:37;;;;;;;3.30;1.50;;;;;;;15.29;79.82;98247.91;5063465;28;20021;-84
2022/09/09 01:30:12;;;;;;;1.80;1.48;;;;;;;15.15;79.86;98225.53;5051112;28;20033;-83
2022/09/09 01:32:54;;;;;;;3.07;1.90;;;;;;;15.13;79.90;98227.72;5067023;28;20039;-83
2022/09/09 01:35:27;;;;;;;2.85;1.98;;;;;;;15.18;80.42;98235.72;5064970;28;20031;-84
2022/09/09 01:37:52;;;;;;;6.75;2.08;;;;;;;14.91;80.19;98213.00;5065596;28;20074;-83
2022/09/09 01:40:18;;;;;;;6.80;2.20;;;;;;;14.95;80.54;98230.13;5051376;28;20480;-83
2022/09/09 01:42:43;;;;;;;3.00;1.80;;;;;;;15.25;80.12;98253.06;5048510;28;20082;-84
2022/09/09 01:45:09;;;;;;;4.72;2.00;;;;;;;15.05;79.83;98223.78;5047259;28;20081;-83
2022/09/09 01:47:35;;;;;;;7.55;2.85;;;;;;;15.14;80.44;98243.53;5046068;28;20059;-83
2022/09/09 01:50:01;;;;;;;6.65;2.85;;;;;;;15.03;80.01;98234.84;5066180;28;20089;-84
2022/09/09 01:52:28;;;;;;;7.18;2.40;;;;;;;15.11;79.74;98241.47;5066228;28;20752;-84
2022/09/09 01:54:54;;;;;;;2.60;2.20;;;;;;;15.00;79.79;98231.94;5067097;28;20060;-84
2022/09/09 01:57:33;;;;;;;5.53;2.08;;;;;;;15.12;79.89;98239.56;5033957;28;20043;-83
2022/09/09 02:00:11;;;;;;;3.58;2.25;;;;;;;14.68;80.21;98242.59;5061561;28;20112;-83
2022/09/09 02:03:05;;;;;;;5.80;2.70;;;;;;;15.02;80.93;98244.00;5051077;28;20028;-83
2022/09/09 02:05:37;;;;;;;4.40;2.33;;;;;;;15.07;80.32;98239.66;5064467;28;20028;-83
2022/09/09 02:08:15;;;;;;;4.72;2.00;;;;;;;14.96;80.02;98226.34;5061964;28;20028;-84
2022/09/09 02:10:46;;;;;;;5.03;2.05;;;;;;;14.97;79.52;98211.84;5063024;28;20032;-84
2022/09/09 02:13:18;;;;;;;7.95;2.13;;;;;;;14.98;80.11;98237.59;5068854;28;20033;-83
2022/09/09 02:15:57;;;;;;;9.32;2.90;;;;;;;14.14;81.88;98240.31;5065892;28;20695;-83
2022/09/09 02:18:35;;;;;;;6.55;2.33;;;;;;;14.75;81.46;98230.44;5066345;28;20028;-83
2022/09/09 02:21:02;;;;;;;4.20;2.28;;;;;;;14.55;80.21;98176.19;5064759;28;20039;-83
2022/09/09 02:23:28;;;;;;;2.83;2.08;;;;;;;14.98;80.50;98253.72;5064538;28;20077;-83
2022/09/09 02:25:57;;;;;;;5.68;2.60;;;;;;;14.91;80.31;98239.06;5065930;28;20028;-83
2022/09/09 02:28:26;;;;;;;3.03;2.13;;;;;;;14.53;81.66;98246.31;5049186;28;20119;-83
2022/09/09 02:30:54;;;;;;;3.80;2.58;;;;;;;14.90;81.09;98237.47;5049184;28;20024;-83
2022/09/09 02:33:25;;;;;;;7.63;2.78;;;;;;;14.65;82.09;98225.19;5064677;28;20622;-83
2022/09/09 02:35:53;;;;;;;2.63;2.00;;;;;;;14.95;80.94;98229.34;5060818;28;20479;-82
2022/09/09 02:38:21;;;;;;;4.18;2.08;;;;;;;14.82;81.03;98214.75;5071278;28;20024;-82
2022/09/09 02:40:48;;;;;;;5.10;2.22;;;;;;;14.78;81.13;98211.06;5055962;28;20124;-83
2022/09/09 02:43:16;;;;;;;2.65;2.13;;;;;;;15.07;81.11;98236.97;5052336;28;20048;-83
2022/09/09 02:46:10;;;;;;;4.30;2.20;;;;;;;15.10;80.86;98234.47;5045295;28;20028;-83
2022/09/09 02:48:54;;;;;;;2.22;1.75;;;;;;;15.13;80.34;98230.41;5058738;28;20432;-83
2022/09/09 02:51:43;;;;;;;2.63;2.05;;;;;;;15.16;80.75;98233.31;5068735;28;20029;-83
2022/09/09 02:54:26;;;;;;;4.72;2.45;;;;;;;15.19;80.56;98237.28;5074744;28;20028;-83
2022/09/09 02:56:56;;;;;;;3.08;2.17;;;;;;;14.99;80.63;98222.28;5061664;28;20055;-83
2022/09/09 02:59:24;;;;;;;2.88;1.95;;;;;;;15.20;80.54;98237.00;5068204;28;20025;-83
2022/09/09 03:01:52;;;;;;;5.45;2.65;;;;;;;15.07;81.06;98235.06;5072328;28;20040;-84
2022/09/09 03:04:17;;;;;;;4.95;1.95;;;;;;;15.18;80.82;98223.06;5050005;28;20036;-83
2022/09/09 03:06:43;;;;;;;4.05;2.30;;;;;;;15.09;80.57;98227.53;5051937;28;20054;-83
2022/09/09 03:09:10;;;;;;;3.67;2.60;;;;;;;15.10;80.98;98241.72;5064953;28;20060;-83
2022/09/09 03:11:35;;;;;;;5.18;1.90;;;;;;;15.23;80.84;98238.31;5061470;28;20497;-83
2022/09/09 03:14:01;;;;;;;3.00;1.85;;;;;;;15.26;80.58;98243.09;5056086;28;20036;-83
2022/09/09 03:16:27;;;;;;;4.07;2.50;;;;;;;15.01;80.75;98220.91;5064459;28;20553;-83
2022/09/09 03:18:52;;;;;;;6.15;2.40;;;;;;;15.22;81.03;98242.91;5067703;28;20017;-83
2022/09/09 03:21:18;;;;;;;3.88;1.92;;;;;;;15.12;80.70;98226.91;5047375;28;20392;-82
2022/09/09 03:23:44;;;;;;;13.43;2.70;;;;;;;15.15;80.81;98231.72;5046192;28;20036;-83
2022/09/09 03:26:10;;;;;;;4.13;2.20;;;;;;;15.16;81.02;98241.38;5041879;28;20025;-83
2022/09/09 03:28:35;;;;;;;5.43;2.05;;;;;;;15.14;81.25;98240.06;5058308;28;20036;-83
2022/09/09 03:31:02;;;;;;;8.68;2.78;;;;;;;15.16;81.11;98230.59;5040360;28;20166;-83
2022/09/09 03:33:29;;;;;;;4.95;2.55;;;;;;;14.77;82.71;98243.56;5063473;28;20024;-83
2022/09/09 03:35:56;;;;;;;7.18;3.05;;;;;;;14.41;84.32;98242.44;5052042;28;20032;-83
2022/09/09 03:38:23;;;;;;;9.35;2.50;;;;;;;14.90;82.66;98235.56;5062675;28;20150;-83
2022/09/09 03:40:51;;;;;;;3.95;2.67;;;;;;;14.99;82.29;98246.47;5065723;28;20039;-83
2022/09/09 03:43:16;;;;;;;3.50;2.28;;;;;;;15.11;81.91;98225.34;5066973;28;20040;-83
2022/09/09 03:45:47;;;;;;;6.55;2.90;;;;;;;14.86;82.33;98228.38;5059668;28;20397;-83
2022/09/09 03:48:13;;;;;;;4.70;2.75;;;;;;;14.75;82.51;98214.31;5043545;28;20118;-83
2022/09/09 03:50:38;;;;;;;4.43;2.28;;;;;;;14.79;82.56;98206.44;5071430;28;20035;-82
2022/09/09 03:53:05;;;;;;;5.15;2.70;;;;;;;15.00;83.25;98230.03;5058799;28;20024;-83
2022/09/09 03:55:32;;;;;;;6.57;2.70;;;;;;;15.15;82.31;98230.91;5064590;28;20081;-82
2022/09/09 03:57:57;;;;;;;5.45;2.35;;;;;;;15.16;81.00;98232.53;5063781;28;20082;-82
2022/09/09 04:00:23;;;;;;;7.03;2.67;;;;;;;14.69;83.12;98207.41;5056528;28;21321;-82
2022/09/09 04:02:49;;;;;;;6.72;2.67;;;;;;;14.90;82.99;98219.47;5047534;28;20128;-82
2022/09/09 04:05:15;;;;;;;6.80;2.65;;;;;;;14.55;83.85;98209.22;5066922;28;20392;-83
2022/09/09 04:07:40;;;;;;;7.28;2.80;;;;;;;15.01;82.28;98217.41;5056163;28;20032;-83
2022/09/09 04:10:07;;;;;;;3.03;2.60;;;;;;;15.18;81.28;98208.84;5069981;28;20052;-83
2022/09/09 04:12:32;;;;;;;8.20;2.40;;;;;;;15.11;81.23;98224.53;5044821;28;20056;-82
2022/09/09 04:14:57;;;;;;;5.22;2.10;;;;;;;15.04;82.00;98219.53;5055481;28;20113;-82
2022/09/09 04:17:23;;;;;;;4.00;2.15;;;;;;;15.15;80.97;98225.53;5062607;28;20036;-81
2022/09/09 04:19:48;;;;;;;7.90;2.53;;;;;;;14.68;82.48;98205.00;5061869;28;20735;-80
2022/09/09 04:22:14;;;;;;;6.40;2.55;;;;;;;14.89;81.89;98215.19;5038862;28;20024;-80
2022/09/09 04:24:39;;;;;;;6.15;2.85;;;;;;;14.90;81.69;98205.22;5067180;28;20150;-80
2022/09/09 04:27:04;;;;;;;4.30;2.50;;;;;;;14.68;82.23;98213.06;5071720;28;20123;-80
2022/09/09 04:29:30;;;;;;;4.55;2.40;;;;;;;14.76;81.62;98199.78;5051038;28;20499;-80
2022/09/09 04:31:55;;;;;;;5.68;2.38;;;;;;;14.86;81.04;98206.91;5036399;28;20492;-81
2022/09/09 04:34:20;;;;;;;3.17;2.53;;;;;;;14.58;82.22;98219.38;5067008;28;20166;-81
2022/09/09 04:36:46;;;;;;;6.75;2.53;;;;;;;14.80;81.58;98203.50;5067396;28;20040;-81
2022/09/09 04:39:11;;;;;;;6.60;2.53;;;;;;;14.83;81.37;98200.22;5071697;28;20064;-81
2022/09/09 04:41:37;;;;;;;4.72;2.80;;;;;;;14.95;80.93;98230.13;5059378;28;20029;-81
2022/09/09 04:44:03;;;;;;;3.30;2.67;;;;;;;14.62;81.25;98223.09;5035539;28;20127;-81
2022/09/09 04:46:28;;;;;;;4.65;2.40;;;;;;;14.93;81.18;98224.25;5051301;28;20045;-81
2022/09/09 04:48:54;;;;;;;8.25;3.08;;;;;;;14.91;81.27;98236.38;5067632;28;20024;-81
2022/09/09 04:51:20;;;;;;;7.05;2.80;;;;;;;15.00;80.84;98238.09;5057591;28;20369;-80
2022/09/09 04:53:47;;;;;;;4.47;2.70;;;;;;;14.82;80.47;98228.19;5064277;28;20083;-81
2022/09/09 04:56:17;;;;;;;3.35;1.98;;;;;;;14.75;81.46;98225.06;5072929;28;20523;-81
2022/09/09 04:58:43;;;;;;;5.03;2.38;;;;;;;14.45;81.95;98195.13;5055120;28;20032;-81
2022/09/09 05:01:11;;;;;;;7.35;2.65;;;;;;;14.69;81.16;98207.41;5076003;28;20410;-82
2022/09/09 05:03:37;;;;;;;6.15;2.70;;;;;;;14.92;81.18;98246.84;5072726;28;20024;-81
2022/09/09 05:06:11;;;;;;;7.07;2.28;;;;;;;14.79;81.30;98230.63;5068040;28;20033;-81
2022/09/09 05:08:38;;;;;;;5.00;3.47;;;;;;;14.96;80.59;98242.47;5070162;28;20021;-81
2022/09/09 05:11:17;;;;;;;4.50;2.88;;;;;;;14.72;80.97;98222.16;5069457;28;21730;-81
2022/09/09 05:13:43;;;;;;;6.38;2.28;;;;;;;14.66;81.16;98217.91;5065969;28;20032;-81
2022/09/09 05:16:11;;;;;;;4.68;2.50;;;;;;;14.95;80.77;98246.25;5065049;28;20054;-81
2022/09/09 05:18:37;;;;;;;5.75;2.65;;;;;;;14.71;81.19;98239.34;5066446;28;20028;-81
2022/09/09 05:21:03;;;;;;;3.50;2.22;;;;;;;14.76;80.53;98250.03;5066209;28;20127;-81
2022/09/09 05:23:28;;;;;;;5.07;2.30;;;;;;;14.24;83.69;98248.25;5067526;28;20124;-81
2022/09/09 05:25:57;;;;;;;6.75;2.75;;;;;;;14.49;81.55;98245.28;5050744;28;20093;-81
2022/09/09 05:28:25;;;;;;;8.13;2.42;;;;;;;14.62;82.13;98255.31;5066074;28;20131;-81
2022/09/09 05:30:57;;;;;;;6.30;3.15;;;;;;;14.21;83.65;98254.19;5062884;28;20032;-80
2022/09/09 05:33:24;;;;;;;2.30;2.10;;;;;;;14.38;83.46;98249.19;5054050;28;20033;-81
2022/09/09 05:36:02;;;;;;;3.78;3.08;;;;;;;13.52;86.25;98246.56;5046578;28;20495;-80
2022/09/09 05:38:28;;;;;;;9.25;2.65;;;;;;;14.06;84.75;98249.00;5052296;28;20043;-81
2022/09/09 05:40:55;;;;;;;5.18;3.33;;;;;;;14.25;83.13;98249.84;5071999;28;20064;-81
2022/09/09 05:43:21;;;;;;;8.05;3.15;;;;;;;13.76;86.25;98266.19;5054220;28;20040;-80
2022/09/09 05:46:04;;;;;;;2.95;2.55;;;;;;;14.37;84.38;98265.59;5059947;28;20032;-81
2022/09/09 05:48:31;;;;;;;3.63;3.08;;;;;;;13.60;87.62;98269.31;5060887;28;20057;-81
2022/09/09 05:50:57;;;;;;;5.78;2.38;;;;;;;14.35;84.96;98257.03;5044799;28;20051;-81
2022/09/09 05:53:22;;;;;;;3.08;2.47;;;;;;;14.55;83.71;98251.38;5054128;28;20074;-81
2022/09/09 05:55:48;;;;;;;5.18;3.10;;;;;;;14.76;82.15;98261.59;5050397;28;20125;-81
2022/09/09 05:58:15;;;;;;;6.03;2.88;;;;;;;14.97;81.74;98270.16;5034625;28;20036;-81
2022/09/09 06:00:40;;;;;;;3.70;3.15;;;;;;;15.09;81.20;98270.53;5038668;28;20028;-81
2022/09/09 06:03:06;;;;;;;6.93;2.72;;;;;;;15.06;81.76;98270.28;5052444;28;20043;-80
2022/09/09 06:05:32;;;;;;;3.30;2.17;;;;;;;15.27;80.39;98263.50;5051564;28;20483;-80
2022/09/09 06:07:57;;;;;;;2.97;2.08;;;;;;;15.17;80.40;98267.16;5048984;28;20086;-81
2022/09/09 06:10:23;;;;;;;3.63;2.50;;;;;;;15.05;80.82;98264.09;5031046;28;20048;-81
2022/09/09 06:12:48;;;;;;;5.75;2.25;;;;;;;14.83;82.34;98264.69;5032318;28;20147;-81
2022/09/09 06:15:14;;;;;;;3.33;2.55;;;;;;;14.78;82.22;98259.41;5066430;28;20397;-81
2022/09/09 06:17:41;;;;;;;3.67;2.20;;;;;;;15.05;82.02;98282.16;5064046;28;20115;-81
2022/09/09 06:20:09;;;;;;;6.85;2.85;;;;;;;14.99;82.23;98284.91;5072203;28;20703;-81
2022/09/09 06:22:34;;;;;;;8.18;2.53;;;;;;;15.17;80.95;98277.94;5055748;28;20396;-81
2022/09/09 06:25:00;;;;;;;4.50;2.38;;;;;;;15.29;81.42;98278.25;5038727;28;20119;-81
2022/09/09 06:27:27;;;;;;;5.20;2.38;;;;;;;14.91;82.97;98269.44;5070134;28;20028;-81
2022/09/09 06:29:53;;;;;;;10.07;3.22;;;;;;;15.07;82.70;98266.53;5082576;28;20032;-80
2022/09/09 06:32:18;;;;;;;5.55;2.10;;;;;;;15.31;80.91;98265.31;5062225;28;20037;-81
2022/09/09 06:34:45;;;;;;;3.88;2.08;;;;;;;15.50;80.53;98262.66;5036689;28;20143;-81
2022/09/09 06:37:10;;;;;;;6.15;2.42;;;;;;;15.06;83.44;98265.72;5053630;28;20032;-81
2022/09/09 06:39:35;;;;;;;5.85;4.07;;;;;;;15.18;84.58;98281.41;5072039;28;20037;-81
2022/09/09 06:42:01;;;;;;;6.60;2.80;;;;;;;14.91;85.79;98284.75;5071853;28;20468;-81
2022/09/09 06:44:26;;;;;;;4.80;2.88;;;;;;;15.09;84.55;98283.16;5071235;28;20058;-80
2022/09/09 06:46:52;;;;;;;7.65;3.75;;;;;;;14.90;87.18;98277.78;5081286;28;20056;-81
2022/09/09 06:49:18;;;;;;;11.73;5.00;;;;;;;14.59;91.34;98282.75;5057853;28;20039;-81
2022/09/09 06:51:43;;;;;;;6.35;3.90;;;;;;;15.01;87.99;98284.59;5052583;28;20037;-81
2022/09/09 06:54:10;;;;;;;6.72;3.70;;;;;;;14.91;89.49;98276.69;5050546;28;20575;-80
2022/09/09 06:56:41;;;;;;;5.50;2.95;;;;;;;14.86;88.52;98266.81;5052165;28;20082;-80
2022/09/09 06:59:08;;;;;;;2.35;2.15;;;;;;;15.42;83.73;98271.38;5050808;28;20033;-81
2022/09/09 07:01:36;;;;;;;7.22;2.67;;;;;;;15.27;86.78;98253.56;5053539;28;20087;-81
2022/09/09 07:04:04;;;;;;;5.75;3.38;;;;;;;15.00;90.91;98248.06;5048444;28;20122;-80
2022/09/09 07:06:35;;;;;;;11.80;3.28;;;;;;;15.21;90.42;98267.38;5050534;28;20049;-80
2022/09/09 07:09:06;;;;;;;5.22;2.40;;;;;;;15.48;87.52;98283.66;5050487;28;20492;-81
2022/09/09 07:11:37;;;;;;;6.53;2.90;;;;;;;15.00;92.45;98264.97;5050535;28;20020;-80
2022/09/09 07:14:02;;;;;;;3.80;2.17;;;;;;;15.30;87.96;98263.75;5050769;28;20393;-80
2022/09/09 07:16:29;;;;;;;4.32;1.98;;;;;;;15.43;88.78;98275.63;5037703;28;20025;-80
2022/09/09 07:18:57;;;;;;;2.35;2.10;;;;;;;15.61;84.68;98272.16;5049139;28;20060;-81
2022/09/09 07:21:26;;;;;;;2.75;2.08;;;;;;;15.80;84.00;98275.56;5035827;28;20065;-80
2022/09/09 07:23:51;;;;;;;6.47;3.00;;;;;;;15.94;85.46;98294.44;5033261;28;20043;-80
2022/09/09 07:26:20;;;;;;;3.88;2.10;;;;;;;15.87;84.62;98292.16;5046227;28;20032;-80
2022/09/09 07:28:46;;;;;;;4.75;2.20;;;;;;;16.15;82.88;98293.78;5051054;28;20024;-80
2022/09/09 07:31:20;;;;;;;2.97;2.22;;;;;;;16.20;82.60;98280.22;5035180;28;20036;-80
2022/09/09 07:33:47;;;;;;;4.07;2.53;;;;;;;16.33;82.04;98294.78;5052632;28;20033;-80
2022/09/09 07:36:16;;;;;;;2.25;1.77;;;;;;;16.08;83.37;98279.91;5049381;28;20047;-80
2022/09/09 07:38:45;;;;;;;3.22;2.10;;;;;;;15.89;84.74;98268.41;5033882;28;20054;-81
2022/09/09 07:41:13;;;;;;;5.13;2.08;;;;;;;16.35;82.56;98289.91;5048903;28;20082;-80
2022/09/09 07:43:40;;;;;;;6.75;2.20;;;;;;;16.22;83.76;98302.28;5049675;28;20032;-79
2022/09/09 07:46:10;;;;;;;8.43;2.17;;;;;;;16.29;83.56;98304.56;5051767;28;20057;-79
2022/09/09 07:48:36;;;;;;;6.93;2.55;;;;;;;16.27;83.34;98288.69;5051927;28;20028;-80
2022/09/09 07:51:18;;;;;;;3.25;2.42;;;;;;;16.35;83.95;98303.38;5059474;28;20025;-79
2022/09/09 07:53:45;;;;;;;5.03;2.22;;;;;;;16.37;81.69;98288.50;5047389;28;20059;-80
2022/09/09 07:56:14;;;;;;;5.40;2.58;;;;;;;16.31;83.58;98303.19;5051464;28;20074;-79
2022/09/09 07:58:40;;;;;;;3.20;2.00;;;;;;;16.07;84.54;98297.16;5051130;28;20027;-79
2022/09/09 08:01:12;;;;;;;5.65;2.20;;;;;;;16.33;81.82;98289.41;5046451;28;20036;-79
2022/09/09 08:03:38;;;;;;;5.75;1.75;;;;;;;16.35;82.44;98282.63;5048141;28;20032;-79
2022/09/09 08:06:07;;;;;;;7.80;2.05;;;;;;;16.43;81.57;98303.47;5049647;28;20063;-79
2022/09/09 08:08:34;;;;;;;3.45;1.67;;;;;;;16.38;81.42;98295.47;5050429;28;20044;-79
2022/09/09 08:11:09;;;;;;;9.05;2.17;;;;;;;16.41;81.93;98310.25;5046935;28;20159;-79
2022/09/09 08:13:37;;;;;;;2.03;1.57;;;;;;;16.43;81.17;98292.69;5055660;28;20035;-79
2022/09/09 08:16:12;;;;;;;6.40;3.20;;;;;;;16.46;82.53;98299.38;5050241;28;20036;-79
2022/09/09 08:18:39;;;;;;;6.23;2.03;;;;;;;16.49;82.45;98301.47;5048338;28;20287;-79
2022/09/09 08:21:06;;;;;;;9.30;3.20;;;;;;;16.56;82.49;98295.72;5048788;28;20066;-79
2022/09/09 08:23:32;;;;;;;6.70;2.22;;;;;;;16.62;82.28;98305.31;5050400;28;20024;-79
2022/09/09 08:26:09;;;;;;;7.05;2.63;;;;;;;16.68;80.67;98296.00;5047530;28;20401;-79
2022/09/09 08:28:34;;;;;;;5.38;1.98;;;;;;;16.67;81.60;98300.59;5052155;28;20029;-79
2022/09/09 08:31:09;;;;;;;5.38;2.35;;;;;;;16.66;81.04;98295.50;5044139;28;20055;-79
2022/09/09 08:33:37;;;;;;;5.65;2.00;;;;;;;16.74;80.89;98305.56;5056365;28;20054;-79
2022/09/09 08:36:02;;;;;;;5.75;2.00;;;;;;;16.70;80.98;98316.19;5048022;28;21331;-79
2022/09/09 08:38:28;;;;;;;3.25;2.00;;;;;;;16.50;80.62;98268.09;5047825;28;20119;-80
2022/09/09 08:41:07;;;;;;;6.13;2.30;;;;;;;16.76;80.41;98308.78;5046183;28;20105;-79
2022/09/09 08:43:33;;;;;;;7.65;2.22;;;;;;;16.71;80.57;98287.34;5064700;28;20033;-80
2022/09/09 08:46:15;;;;;;;6.70;2.20;;;;;;;16.85;80.31;98304.28;5015650;28;20135;-79
2022/09/09 08:49:10;;;;;;;6.88;2.10;;;;;;;16.90;80.14;98317.66;5052801;28;20075;-79
2022/09/09 08:51:35;;;;;;;7.40;2.25;;;;;;;16.84;80.21;98295.38;5055919;28;20028;-79
2022/09/09 08:54:04;;;;;;;7.03;2.65;;;;;;;16.86;80.01;98320.13;5048786;28;20164;-79
2022/09/09 08:56:31;;;;;;;7.80;3.35;;;;;;;16.76;80.47;98304.19;5053160;28;20231;-79
2022/09/09 08:59:01;;;;;;;7.13;2.40;;;;;;;16.89;80.09;98324.94;5034920;28;20171;-79
2022/09/09 09:01:39;;;;;;;9.77;2.30;;;;;;;16.89;80.10;98329.53;5053781;28;20032;-79
2022/09/09 09:04:11;;;;;;;7.03;2.00;;;;;;;17.00;79.31;98337.09;5054222;28;20028;-79
2022/09/09 09:07:15;;;;;;;4.55;1.90;;;;;;;16.96;79.05;98325.31;5054593;28;21748;-79
2022/09/09 09:09:52;;;;;;;9.45;2.47;;;;;;;16.91;80.63;98325.44;5067370;28;20922;-79
2022/09/09 09:12:24;;;;;;;3.72;2.03;;;;;;;16.93;79.53;98303.53;5052808;28;20059;-79
2022/09/09 09:14:50;;;;;;;5.03;2.13;;;;;;;17.00;79.84;98334.41;5058205;28;20016;-79
2022/09/09 09:17:21;;;;;;;4.43;2.13;;;;;;;17.08;79.40;98320.19;5053048;28;20032;-80
2022/09/09 09:19:49;;;;;;;5.68;2.00;;;;;;;17.17;78.97;98298.69;5067026;28;21001;-79
2022/09/09 09:22:15;;;;;;;6.80;2.13;;;;;;;17.17;81.61;98307.59;5053995;28;20039;-79
2022/09/09 09:25:00;;;;;;;4.80;2.30;;;;;;;17.29;79.58;98307.06;5051679;28;20854;-79
2022/09/09 09:27:43;;;;;;;5.70;2.00;;;;;;;17.33;80.04;98308.06;5047577;28;20025;-80
2022/09/09 09:30:20;;;;;;;7.72;2.28;;;;;;;17.48;78.69;98314.97;5053774;28;20028;-79
2022/09/09 09:33:01;;;;;;;6.13;2.08;;;;;;;17.50;78.77;98316.31;5053382;28;20036;-79
2022/09/09 09:35:26;;;;;;;3.17;2.00;;;;;;;17.47;77.91;98306.09;5053452;28;20137;-79
2022/09/09 09:37:52;;;;;;;6.78;2.08;;;;;;;17.60;77.20;98324.19;5044442;28;20630;-79
2022/09/09 09:40:20;;;;;;;8.98;2.15;;;;;;;17.67;76.87;98327.22;5047949;28;20596;-79
2022/09/09 09:43:00;;;;;;;5.47;2.47;;;;;;;17.66;76.76;98319.44;5035930;28;20036;-79
2022/09/09 09:45:28;;;;;;;7.15;2.28;;;;;;;17.56;78.44;98317.00;5052470;28;20491;-79
2022/09/09 09:48:02;;;;;;;9.98;2.67;;;;;;;17.66;75.83;98306.75;5052112;28;20032;-79
2022/09/09 09:50:27;;;;;;;8.27;2.30;;;;;;;17.69;76.54;98310.75;5054826;28;20039;-79
2022/09/09 09:52:58;;;;;;;4.80;2.03;;;;;;;17.65;77.17;98298.94;5068105;28;20036;-79
2022/09/09 09:55:25;;;;;;;10.15;2.30;;;;;;;17.76;75.72;98294.88;5050749;28;20170;-79
2022/09/09 09:57:51;;;;;;;5.43;2.03;;;;;;;17.78;75.60;98293.47;5049557;28;20033;-79
2022/09/09 10:00:22;;;;;;;6.10;2.03;;;;;;;17.96;74.91;98305.97;5034803;28;20036;-78
2022/09/09 10:02:49;;;;;;;5.10;2.67;;;;;;;18.08;74.63;98308.13;5046332;28;20032;-80
2022/09/09 10:05:19;;;;;;;7.43;2.00;;;;;;;18.13;74.56;98304.50;5048421;28;20576;-79
2022/09/09 10:07:45;;;;;;;7.20;2.53;;;;;;;18.08;74.03;98285.72;5048110;28;20119;-79
2022/09/09 10:10:40;;;;;;;8.48;2.28;;;;;;;18.17;73.36;98306.25;5033378;28;20033;-79
2022/09/09 10:13:18;;;;;;;4.03;2.15;;;;;;;18.22;72.75;98298.00;5052233;28;20039;-79
2022/09/09 10:15:59;;;;;;;4.90;2.05;;;;;;;18.36;72.15;98298.72;5051386;28;20032;-79
2022/09/09 10:18:39;;;;;;;4.88;1.80;;;;;;;18.47;71.73;98283.03;5048041;28;20032;-79
2022/09/09 10:21:41;;;;;;;8.43;2.00;;;;;;;18.72;71.12;98298.53;5056628;28;20024;-80
2022/09/09 10:24:32;;;;;;;4.10;2.15;;;;;;;18.66;70.63;98270.03;5039513;28;20163;-79
2022/09/09 10:27:09;;;;;;;4.85;2.17;;;;;;;18.97;70.17;98295.09;5050810;28;20028;-79
2022/09/09 10:29:53;;;;;;;4.65;1.98;;;;;;;18.89;69.73;98289.66;5068689;28;20476;-79
2022/09/09 10:32:33;;;;;;;6.65;2.17;;;;;;;18.95;69.81;98286.50;5047917;28;20037;-80
2022/09/09 10:35:10;;;;;;;5.18;1.90;;;;;;;19.06;69.36;98273.47;5048480;28;20071;-80
2022/09/09 10:37:53;;;;;;;4.05;1.67;;;;;;;19.19;69.41;98273.31;5047536;28;20033;-80
2022/09/09 10:40:29;;;;;;;7.20;2.03;;;;;;;19.41;69.22;98286.72;5050127;28;20142;-80
2022/09/09 10:43:04;;;;;;;7.32;1.58;;;;;;;19.43;69.00;98283.69;5047562;28;20510;-79
2022/09/09 10:45:41;;;;;;;4.28;2.10;;;;;;;19.18;68.34;98247.34;5045373;28;20024;-80
2022/09/09 10:48:26;;;;;;;5.25;1.83;;;;;;;19.48;68.00;98283.53;5060016;28;20028;-80
2022/09/09 10:51:32;;;;;;;8.55;1.80;;;;;;;19.24;65.91;98270.44;5052550;28;20025;-80
2022/09/09 10:54:01;;;;;;;10.43;2.10;;;;;;;19.36;65.99;98277.94;4968262;28;20036;-80
2022/09/09 10:56:28;;;;;;;4.88;1.60;;;;;;;19.72;64.37;98275.69;5047969;28;20060;-80
2022/09/09 10:59:06;;;;;;;3.72;1.63;;;;;;;19.81;64.60;98283.81;5049605;28;20488;-80
2022/09/09 11:01:53;;;;;;;6.93;2.50;;;;;;;19.91;64.37;98280.75;5064580;28;20056;-80
2022/09/09 11:04:26;;;;;;;6.38;2.22;;;;;;;19.92;64.24;98274.22;5048577;28;20056;-80
2022/09/09 11:06:55;;;;;;;7.07;2.15;;;;;;;19.68;64.99;98276.66;5051828;28;20035;-80
2022/09/09 11:09:28;;;;;;;4.00;1.55;;;;;;;19.77;64.35;98263.88;5048188;28;20041;-79
2022/09/09 11:12:02;;;;;;;5.30;1.77;;;;;;;19.76;64.63;98273.94;5052040;28;20048;-80
2022/09/09 11:14:45;;;;;;;3.60;1.50;;;;;;;19.72;64.89;98243.19;5066507;28;20036;-80
2022/09/09 11:17:24;;;;;;;6.18;1.60;;;;;;;20.07;64.73;98274.47;5045561;28;20060;-80
2022/09/09 11:19:50;;;;;;;3.88;1.60;;;;;;;20.16;64.58;98263.59;5050575;28;20029;-80
2022/09/09 11:22:23;;;;;;;6.18;1.45;;;;;;;20.19;64.34;98271.09;5048050;28;20150;-80
2022/09/09 11:25:29;;;;;;;7.45;1.60;;;;;;;20.12;64.56;98268.06;5045431;28;20059;-79
2022/09/09 11:27:58;;;;;;;5.88;1.70;;;;;;;20.04;64.73;98260.78;5041984;28;20044;-80
2022/09/09 11:30:42;;;;;;;5.28;1.52;;;;;;;20.00;64.57;98265.25;5049291;28;20034;-80
2022/09/09 11:33:35;;;;;;;5.20;1.80;;;;;;;19.95;64.38;98268.94;5067092;28;20032;-80
2022/09/09 11:36:26;;;;;;;6.30;1.35;;;;;;;20.01;64.08;98258.69;5067182;28;20567;-79
2022/09/09 11:38:57;;;;;;;2.78;1.48;;;;;;;20.09;62.44;98255.97;5061436;28;20048;-80
2022/09/09 11:41:22;;;;;;;4.78;1.70;;;;;;;20.12;63.88;98265.38;5063279;28;20466;-82
2022/09/09 11:43:52;;;;;;;5.57;1.73;;;;;;;20.01;63.34;98239.75;5054174;28;20057;-80
2022/09/09 11:46:22;;;;;;;4.95;1.33;;;;;;;20.07;62.70;98247.38;5062387;28;20028;-81
2022/09/09 11:49:03;;;;;;;5.18;1.58;;;;;;;20.25;62.53;98255.47;5061858;28;20025;-81
2022/09/09 11:51:31;;;;;;;7.10;1.48;;;;;;;20.32;62.11;98251.13;5067526;28;20123;-81
2022/09/09 11:54:01;;;;;;;3.05;1.30;;;;;;;20.35;62.18;98258.63;5070080;28;20558;-81